sensor_id;sensor_type;location;lat;lon;timestamp;temperature;humidity
1728;DHT22;861;48.808;9.006;2022-12-07T00:01:44;6.20;99.90
1728;DHT22;861;48.808;9.006;2022-12-07T00:04:16;6.20;99.90
1728;DHT22;861;48.808;9.006;2022-12-07T00:06:50;6.20;99.90
1728;DHT22;861;48.808;9.006;2022-12-07T00:09:19;6.20;99.90
1728;DHT22;861;48.808;9.006;2022-12-07T00:11:50;6.10;99.90
1728;DHT22;861;48.808;9.006;2022-12-07T00:14:19;6.00;99.90
1728;DHT22;861;48.808;9.006;2022-12-07T00:16:51;6.20;99.90
1728;DHT22;861;48.808;9.006;2022-12-07T00:19:18;6.20;99.90
1728;DHT22;861;48.808;9.006;2022-12-07T00:21:45;6.00;99.90
1728;DHT22;861;48.808;9.006;2022-12-07T00:24:11;5.90;99.90
1728;DHT22;861;48.808;9.006;2022-12-07T00:26:41;5.90;99.90
1728;DHT22;861;48.808;9.006;2022-12-07T00:29:21;5.80;99.90
1728;DHT22;861;48.808;9.006;2022-12-07T00:31:49;5.80;99.90
1728;DHT22;861;48.808;9.006;2022-12-07T00:34:20;5.80;99.90
1728;DHT22;861;48.808;9.006;2022-12-07T00:36:47;5.80;99.90
1728;DHT22;861;48.808;9.006;2022-12-07T00:39:14;5.80;99.90
1728;DHT22;861;48.808;9.006;2022-12-07T00:41:40;5.70;99.90
1728;DHT22;861;48.808;9.006;2022-12-07T00:44:07;5.60;99.90
1728;DHT22;861;48.808;9.006;2022-12-07T00:46:33;5.60;99.90
1728;DHT22;861;48.808;9.006;2022-12-07T00:49:01;5.70;99.90
1728;DHT22;861;48.808;9.006;2022-12-07T00:51:32;5.70;99.90
1728;DHT22;861;48.808;9.006;2022-12-07T00:53:58;5.70;99.90
1728;DHT22;861;48.808;9.006;2022-12-07T00:56:28;5.70;99.90
1728;DHT22;861;48.808;9.006;2022-12-07T00:59:01;5.70;99.90
1728;DHT22;861;48.808;9.006;2022-12-07T01:01:33;5.80;99.90
1728;DHT22;861;48.808;9.006;2022-12-07T01:04:03;5.80;99.90
1728;DHT22;861;48.808;9.006;2022-12-07T01:06:31;5.80;99.90
1728;DHT22;861;48.808;9.006;2022-12-07T01:08:58;5.80;99.90
1728;DHT22;861;48.808;9.006;2022-12-07T01:11:28;5.70;99.90
1728;DHT22;861;48.808;9.006;2022-12-07T01:13:58;5.60;99.90
1728;DHT22;861;48.808;9.006;2022-12-07T01:16:29;5.80;99.90
1728;DHT22;861;48.808;9.006;2022-12-07T01:19:00;5.90;99.90
1728;DHT22;861;48.808;9.006;2022-12-07T01:21:31;5.90;99.90
1728;DHT22;861;48.808;9.006;2022-12-07T01:24:03;5.80;99.90
1728;DHT22;861;48.808;9.006;2022-12-07T01:26:32;6.00;99.90
1728;DHT22;861;48.808;9.006;2022-12-07T01:28:59;5.90;99.90
1728;DHT22;861;48.808;9.006;2022-12-07T01:31:28;5.80;99.90
1728;DHT22;861;48.808;9.006;2022-12-07T01:33:58;5.90;99.90
1728;DHT22;861;48.808;9.006;2022-12-07T01:36:34;5.90;99.90
1728;DHT22;861;48.808;9.006;2022-12-07T01:39:06;5.80;99.90
1728;DHT22;861;48.808;9.006;2022-12-07T01:41:39;5.90;99.90
1728;DHT22;861;48.808;9.006;2022-12-07T01:46:58;5.80;99.90
1728;DHT22;861;48.808;9.006;2022-12-07T01:49:40;5.80;99.90
1728;DHT22;861;48.808;9.006;2022-12-07T01:52:23;5.80;99.90
1728;DHT22;861;48.808;9.006;2022-12-07T01:55:06;5.90;99.90
1728;DHT22;861;48.808;9.006;2022-12-07T01:57:48;6.00;99.90
1728;DHT22;861;48.808;9.006;2022-12-07T02:00:19;5.90;99.90
1728;DHT22;861;48.808;9.006;2022-12-07T02:03:25;5.90;99.90
1728;DHT22;861;48.808;9.006;2022-12-07T02:06:06;6.00;99.90
1728;DHT22;861;48.808;9.006;2022-12-07T02:08:35;6.10;99.90
1728;DHT22;861;48.808;9.006;2022-12-07T02:11:05;6.10;99.90
1728;DHT22;861;48.808;9.006;2022-12-07T02:13:39;6.20;99.90
1728;DHT22;861;48.808;9.006;2022-12-07T02:20:21;6.00;99.90
1728;DHT22;861;48.808;9.006;2022-12-07T02:26:50;5.70;99.90
1728;DHT22;861;48.808;9.006;2022-12-07T02:30:09;5.60;99.90
1728;DHT22;861;48.808;9.006;2022-12-07T02:33:11;5.60;99.90
1728;DHT22;861;48.808;9.006;2022-12-07T02:35:58;5.50;99.90
1728;DHT22;861;48.808;9.006;2022-12-07T02:38:45;5.50;99.90
1728;DHT22;861;48.808;9.006;2022-12-07T02:41:35;5.50;99.90
1728;DHT22;861;48.808;9.006;2022-12-07T02:44:17;5.30;99.90
1728;DHT22;861;48.808;9.006;2022-12-07T02:47:09;5.20;99.90
1728;DHT22;861;48.808;9.006;2022-12-07T02:49:40;5.10;99.90
1728;DHT22;861;48.808;9.006;2022-12-07T02:52:08;5.20;99.90
1728;DHT22;861;48.808;9.006;2022-12-07T02:54:34;5.00;99.90
1728;DHT22;861;48.808;9.006;2022-12-07T02:57:45;4.80;99.90
1728;DHT22;861;48.808;9.006;2022-12-07T03:00:52;4.50;99.90
1728;DHT22;861;48.808;9.006;2022-12-07T03:03:29;4.40;99.90
1728;DHT22;861;48.808;9.006;2022-12-07T03:06:16;4.50;99.90
1728;DHT22;861;48.808;9.006;2022-12-07T03:09:22;4.60;99.90
1728;DHT22;861;48.808;9.006;2022-12-07T03:12:16;4.70;99.90
1728;DHT22;861;48.808;9.006;2022-12-07T03:15:13;4.70;99.90
1728;DHT22;861;48.808;9.006;2022-12-07T03:18:05;4.70;99.90
1728;DHT22;861;48.808;9.006;2022-12-07T03:20:42;4.80;99.90
1728;DHT22;861;48.808;9.006;2022-12-07T03:23:16;4.80;99.90
1728;DHT22;861;48.808;9.006;2022-12-07T03:25:52;4.70;99.90
1728;DHT22;861;48.808;9.006;2022-12-07T03:28:33;4.60;99.90
1728;DHT22;861;48.808;9.006;2022-12-07T03:31:25;4.60;99.90
1728;DHT22;861;48.808;9.006;2022-12-07T03:37:23;4.50;99.90
1728;DHT22;861;48.808;9.006;2022-12-07T03:40:34;4.40;99.90
1728;DHT22;861;48.808;9.006;2022-12-07T03:43:10;4.20;99.90
1728;DHT22;861;48.808;9.006;2022-12-07T03:45:43;4.20;99.90
1728;DHT22;861;48.808;9.006;2022-12-07T03:48:37;4.10;99.90
1728;DHT22;861;48.808;9.006;2022-12-07T03:52:22;4.30;99.90
1728;DHT22;861;48.808;9.006;2022-12-07T03:55:11;4.30;99.90
1728;DHT22;861;48.808;9.006;2022-12-07T03:58:02;4.30;99.90
1728;DHT22;861;48.808;9.006;2022-12-07T04:00:35;4.30;99.90
1728;DHT22;861;48.808;9.006;2022-12-07T04:03:02;4.40;99.90
1728;DHT22;861;48.808;9.006;2022-12-07T04:05:29;4.30;99.90
1728;DHT22;861;48.808;9.006;2022-12-07T04:07:55;4.10;99.90
1728;DHT22;861;48.808;9.006;2022-12-07T04:10:22;4.20;99.90
1728;DHT22;861;48.808;9.006;2022-12-07T04:12:48;4.20;99.90
1728;DHT22;861;48.808;9.006;2022-12-07T04:15:14;4.40;99.90
1728;DHT22;861;48.808;9.006;2022-12-07T04:17:40;4.50;99.90
1728;DHT22;861;48.808;9.006;2022-12-07T04:20:08;4.40;99.90
1728;DHT22;861;48.808;9.006;2022-12-07T04:22:35;4.50;99.90
1728;DHT22;861;48.808;9.006;2022-12-07T04:25:02;4.40;99.90
1728;DHT22;861;48.808;9.006;2022-12-07T04:27:28;4.00;99.90
1728;DHT22;861;48.808;9.006;2022-12-07T04:29:55;4.00;99.90
1728;DHT22;861;48.808;9.006;2022-12-07T04:32:22;4.10;99.90
1728;DHT22;861;48.808;9.006;2022-12-07T04:34:49;4.10;99.90
1728;DHT22;861;48.808;9.006;2022-12-07T04:37:17;4.00;99.90
1728;DHT22;861;48.808;9.006;2022-12-07T04:39:43;4.00;99.90
1728;DHT22;861;48.808;9.006;2022-12-07T04:42:10;4.10;99.90
1728;DHT22;861;48.808;9.006;2022-12-07T04:44:39;4.10;99.90
1728;DHT22;861;48.808;9.006;2022-12-07T04:47:05;4.00;99.90
1728;DHT22;861;48.808;9.006;2022-12-07T04:49:31;4.20;99.90
1728;DHT22;861;48.808;9.006;2022-12-07T04:51:58;4.20;99.90
1728;DHT22;861;48.808;9.006;2022-12-07T04:54:24;4.20;99.90
1728;DHT22;861;48.808;9.006;2022-12-07T04:56:50;4.10;99.90
1728;DHT22;861;48.808;9.006;2022-12-07T04:59:16;4.20;99.90
1728;DHT22;861;48.808;9.006;2022-12-07T05:01:44;4.30;99.90
1728;DHT22;861;48.808;9.006;2022-12-07T05:04:11;4.40;99.90
1728;DHT22;861;48.808;9.006;2022-12-07T05:06:37;4.40;99.90
1728;DHT22;861;48.808;9.006;2022-12-07T05:09:05;4.50;99.90
1728;DHT22;861;48.808;9.006;2022-12-07T05:11:31;4.50;99.90
1728;DHT22;861;48.808;9.006;2022-12-07T05:16:49;4.60;99.90
1728;DHT22;861;48.808;9.006;2022-12-07T05:19:18;4.60;99.90
1728;DHT22;861;48.808;9.006;2022-12-07T05:21:45;4.70;99.90
1728;DHT22;861;48.808;9.006;2022-12-07T05:24:14;4.60;99.90
1728;DHT22;861;48.808;9.006;2022-12-07T05:26:43;4.50;99.90
1728;DHT22;861;48.808;9.006;2022-12-07T05:29:14;4.40;99.90
1728;DHT22;861;48.808;9.006;2022-12-07T05:31:43;4.30;99.90
1728;DHT22;861;48.808;9.006;2022-12-07T05:34:10;4.30;99.90
1728;DHT22;861;48.808;9.006;2022-12-07T05:36:37;4.30;99.90
1728;DHT22;861;48.808;9.006;2022-12-07T05:39:04;4.00;99.90
1728;DHT22;861;48.808;9.006;2022-12-07T05:41:30;4.00;99.90
1728;DHT22;861;48.808;9.006;2022-12-07T05:44:15;4.00;99.90
1728;DHT22;861;48.808;9.006;2022-12-07T05:46:42;4.10;99.90
1728;DHT22;861;48.808;9.006;2022-12-07T05:49:08;4.00;99.90
1728;DHT22;861;48.808;9.006;2022-12-07T05:51:34;4.00;99.90
1728;DHT22;861;48.808;9.006;2022-12-07T05:54:00;4.10;99.90
1728;DHT22;861;48.808;9.006;2022-12-07T05:56:27;4.10;99.90
1728;DHT22;861;48.808;9.006;2022-12-07T05:58:53;4.10;99.90
1728;DHT22;861;48.808;9.006;2022-12-07T06:01:38;4.20;99.90
1728;DHT22;861;48.808;9.006;2022-12-07T06:04:05;4.10;99.90
1728;DHT22;861;48.808;9.006;2022-12-07T06:06:31;4.10;99.90
1728;DHT22;861;48.808;9.006;2022-12-07T06:08:57;4.00;99.90
1728;DHT22;861;48.808;9.006;2022-12-07T06:11:24;4.10;99.90
1728;DHT22;861;48.808;9.006;2022-12-07T06:14:08;4.10;99.90
1728;DHT22;861;48.808;9.006;2022-12-07T06:16:35;4.20;99.90
1728;DHT22;861;48.808;9.006;2022-12-07T06:19:01;4.20;99.90
1728;DHT22;861;48.808;9.006;2022-12-07T06:21:27;4.20;99.90
1728;DHT22;861;48.808;9.006;2022-12-07T06:23:54;4.10;99.90
1728;DHT22;861;48.808;9.006;2022-12-07T06:26:20;4.10;99.90
1728;DHT22;861;48.808;9.006;2022-12-07T06:28:47;3.90;99.90
1728;DHT22;861;48.808;9.006;2022-12-07T06:31:13;3.80;99.90
1728;DHT22;861;48.808;9.006;2022-12-07T06:33:42;3.70;99.90
1728;DHT22;861;48.808;9.006;2022-12-07T06:36:10;3.70;99.90
1728;DHT22;861;48.808;9.006;2022-12-07T06:38:37;3.70;99.90
1728;DHT22;861;48.808;9.006;2022-12-07T06:41:05;3.80;99.90
1728;DHT22;861;48.808;9.006;2022-12-07T06:43:32;3.70;99.90
1728;DHT22;861;48.808;9.006;2022-12-07T06:45:58;3.60;99.90
1728;DHT22;861;48.808;9.006;2022-12-07T06:48:25;3.50;99.90
1728;DHT22;861;48.808;9.006;2022-12-07T06:50:51;3.50;99.90
1728;DHT22;861;48.808;9.006;2022-12-07T06:53:17;3.60;99.90
1728;DHT22;861;48.808;9.006;2022-12-07T06:55:43;3.50;99.90
1728;DHT22;861;48.808;9.006;2022-12-07T06:58:09;3.50;99.90
1728;DHT22;861;48.808;9.006;2022-12-07T07:00:35;3.40;99.90
1728;DHT22;861;48.808;9.006;2022-12-07T07:03:01;3.40;99.90
1728;DHT22;861;48.808;9.006;2022-12-07T07:05:28;3.30;99.90
1728;DHT22;861;48.808;9.006;2022-12-07T07:07:54;3.20;99.90
1728;DHT22;861;48.808;9.006;2022-12-07T07:10:20;3.20;99.90
1728;DHT22;861;48.808;9.006;2022-12-07T07:12:46;3.40;99.90
1728;DHT22;861;48.808;9.006;2022-12-07T07:15:12;3.60;99.90
1728;DHT22;861;48.808;9.006;2022-12-07T07:17:38;3.60;99.90
1728;DHT22;861;48.808;9.006;2022-12-07T07:20:05;3.60;99.90
1728;DHT22;861;48.808;9.006;2022-12-07T07:22:32;3.70;99.90
1728;DHT22;861;48.808;9.006;2022-12-07T07:24:58;3.60;99.90
1728;DHT22;861;48.808;9.006;2022-12-07T07:27:24;3.40;99.90
1728;DHT22;861;48.808;9.006;2022-12-07T07:29:50;3.20;99.90
1728;DHT22;861;48.808;9.006;2022-12-07T07:32:16;3.30;99.90
1728;DHT22;861;48.808;9.006;2022-12-07T07:34:42;3.10;99.90
1728;DHT22;861;48.808;9.006;2022-12-07T07:37:08;3.30;99.90
1728;DHT22;861;48.808;9.006;2022-12-07T07:39:36;3.40;99.90
1728;DHT22;861;48.808;9.006;2022-12-07T07:42:02;3.40;99.90
1728;DHT22;861;48.808;9.006;2022-12-07T07:44:29;3.60;99.90
1728;DHT22;861;48.808;9.006;2022-12-07T07:46:55;3.70;99.90
1728;DHT22;861;48.808;9.006;2022-12-07T07:49:21;3.70;99.90
1728;DHT22;861;48.808;9.006;2022-12-07T07:51:47;3.70;99.90
1728;DHT22;861;48.808;9.006;2022-12-07T07:54:13;3.80;99.90
1728;DHT22;861;48.808;9.006;2022-12-07T07:56:39;3.90;99.90
1728;DHT22;861;48.808;9.006;2022-12-07T07:59:05;3.90;99.90
1728;DHT22;861;48.808;9.006;2022-12-07T08:01:31;3.90;99.90
1728;DHT22;861;48.808;9.006;2022-12-07T08:03:58;3.80;99.90
1728;DHT22;861;48.808;9.006;2022-12-07T08:06:24;3.80;99.90
1728;DHT22;861;48.808;9.006;2022-12-07T08:08:51;3.90;99.90
1728;DHT22;861;48.808;9.006;2022-12-07T08:11:18;4.10;99.90
1728;DHT22;861;48.808;9.006;2022-12-07T08:13:47;4.30;99.90
1728;DHT22;861;48.808;9.006;2022-12-07T08:16:13;4.60;99.90
1728;DHT22;861;48.808;9.006;2022-12-07T08:18:42;4.50;99.90
1728;DHT22;861;48.808;9.006;2022-12-07T08:21:13;4.60;99.90
1728;DHT22;861;48.808;9.006;2022-12-07T08:23:41;4.60;99.90
1728;DHT22;861;48.808;9.006;2022-12-07T08:26:14;4.60;99.90
1728;DHT22;861;48.808;9.006;2022-12-07T08:28:42;4.50;99.90
1728;DHT22;861;48.808;9.006;2022-12-07T08:31:17;4.70;99.90
1728;DHT22;861;48.808;9.006;2022-12-07T08:33:47;4.80;99.90
1728;DHT22;861;48.808;9.006;2022-12-07T08:36:14;4.80;99.90
1728;DHT22;861;48.808;9.006;2022-12-07T08:38:43;4.90;99.90
1728;DHT22;861;48.808;9.006;2022-12-07T08:41:09;4.90;99.90
1728;DHT22;861;48.808;9.006;2022-12-07T08:43:36;5.00;99.90
1728;DHT22;861;48.808;9.006;2022-12-07T08:46:25;5.00;99.90
1728;DHT22;861;48.808;9.006;2022-12-07T08:49:31;4.90;99.90
1728;DHT22;861;48.808;9.006;2022-12-07T08:52:06;4.80;99.90
1728;DHT22;861;48.808;9.006;2022-12-07T08:54:37;4.90;99.90
1728;DHT22;861;48.808;9.006;2022-12-07T08:57:09;4.80;99.90
1728;DHT22;861;48.808;9.006;2022-12-07T08:59:37;4.70;99.90
1728;DHT22;861;48.808;9.006;2022-12-07T09:02:05;4.70;99.90
1728;DHT22;861;48.808;9.006;2022-12-07T09:04:32;4.70;99.90
1728;DHT22;861;48.808;9.006;2022-12-07T09:06:59;4.80;99.90
1728;DHT22;861;48.808;9.006;2022-12-07T09:09:25;4.80;99.90
1728;DHT22;861;48.808;9.006;2022-12-07T09:11:51;4.80;99.90
1728;DHT22;861;48.808;9.006;2022-12-07T09:14:18;4.80;99.90
1728;DHT22;861;48.808;9.006;2022-12-07T09:16:44;4.80;99.90
1728;DHT22;861;48.808;9.006;2022-12-07T09:19:10;5.10;99.90
1728;DHT22;861;48.808;9.006;2022-12-07T09:21:36;4.80;99.90
1728;DHT22;861;48.808;9.006;2022-12-07T09:24:03;4.90;99.90
1728;DHT22;861;48.808;9.006;2022-12-07T09:26:29;5.10;99.90
1728;DHT22;861;48.808;9.006;2022-12-07T09:28:55;5.10;99.90
1728;DHT22;861;48.808;9.006;2022-12-07T09:31:21;5.10;99.90
1728;DHT22;861;48.808;9.006;2022-12-07T09:33:58;5.20;99.90
1728;DHT22;861;48.808;9.006;2022-12-07T09:36:27;5.20;99.90
1728;DHT22;861;48.808;9.006;2022-12-07T09:38:55;5.40;99.90
1728;DHT22;861;48.808;9.006;2022-12-07T09:41:25;5.40;99.90
1728;DHT22;861;48.808;9.006;2022-12-07T09:44:08;5.50;99.90
1728;DHT22;861;48.808;9.006;2022-12-07T09:46:46;5.50;99.90
1728;DHT22;861;48.808;9.006;2022-12-07T09:49:22;5.50;99.90
1728;DHT22;861;48.808;9.006;2022-12-07T09:52:26;5.40;99.90
1728;DHT22;861;48.808;9.006;2022-12-07T09:54:54;5.50;99.90
1728;DHT22;861;48.808;9.006;2022-12-07T09:57:30;5.50;99.90
1728;DHT22;861;48.808;9.006;2022-12-07T10:00:13;5.40;99.90
1728;DHT22;861;48.808;9.006;2022-12-07T10:05:31;5.60;99.90
1728;DHT22;861;48.808;9.006;2022-12-07T10:08:04;5.80;99.90
1728;DHT22;861;48.808;9.006;2022-12-07T10:10:35;5.70;99.90
1728;DHT22;861;48.808;9.006;2022-12-07T10:13:09;5.70;99.90
1728;DHT22;861;48.808;9.006;2022-12-07T10:15:56;5.60;99.90
1728;DHT22;861;48.808;9.006;2022-12-07T10:18:32;5.60;99.90
1728;DHT22;861;48.808;9.006;2022-12-07T10:21:12;5.60;99.90
1728;DHT22;861;48.808;9.006;2022-12-07T10:24:02;5.60;99.90
1728;DHT22;861;48.808;9.006;2022-12-07T10:26:50;5.60;99.90
1728;DHT22;861;48.808;9.006;2022-12-07T10:29:39;5.70;99.90
1728;DHT22;861;48.808;9.006;2022-12-07T10:34:42;5.80;99.90
1728;DHT22;861;48.808;9.006;2022-12-07T10:37:19;5.90;99.90
1728;DHT22;861;48.808;9.006;2022-12-07T10:39:56;6.00;99.90
1728;DHT22;861;48.808;9.006;2022-12-07T10:42:26;6.10;99.90
1728;DHT22;861;48.808;9.006;2022-12-07T10:45:16;6.30;99.90
1728;DHT22;861;48.808;9.006;2022-12-07T10:48:13;6.30;99.90
1728;DHT22;861;48.808;9.006;2022-12-07T10:54:08;6.10;99.90
1728;DHT22;861;48.808;9.006;2022-12-07T11:00:26;5.90;99.90
1728;DHT22;861;48.808;9.006;2022-12-07T11:03:33;5.90;99.90
1728;DHT22;861;48.808;9.006;2022-12-07T11:26:04;5.80;99.90
1728;DHT22;861;48.808;9.006;2022-12-07T11:33:22;5.80;99.90
1728;DHT22;861;48.808;9.006;2022-12-07T11:36:31;5.90;99.90
1728;DHT22;861;48.808;9.006;2022-12-07T11:39:33;5.90;99.90
1728;DHT22;861;48.808;9.006;2022-12-07T11:42:27;5.90;99.90
1728;DHT22;861;48.808;9.006;2022-12-07T11:45:29;5.90;99.90
1728;DHT22;861;48.808;9.006;2022-12-07T11:48:25;5.90;99.90
1728;DHT22;861;48.808;9.006;2022-12-07T11:51:02;5.80;99.90
1728;DHT22;861;48.808;9.006;2022-12-07T11:53:42;5.60;99.90
1728;DHT22;861;48.808;9.006;2022-12-07T11:56:17;5.60;99.90
1728;DHT22;861;48.808;9.006;2022-12-07T11:58:49;5.60;99.90
1728;DHT22;861;48.808;9.006;2022-12-07T12:01:55;5.70;99.90
1728;DHT22;861;48.808;9.006;2022-12-07T12:05:19;5.70;99.90
1728;DHT22;861;48.808;9.006;2022-12-07T12:08:28;5.60;99.90
1728;DHT22;861;48.808;9.006;2022-12-07T12:11:32;5.50;99.90
1728;DHT22;861;48.808;9.006;2022-12-07T12:20:55;5.40;99.90
1728;DHT22;861;48.808;9.006;2022-12-07T12:23:48;5.50;99.90
1728;DHT22;861;48.808;9.006;2022-12-07T12:26:27;5.50;99.90
1728;DHT22;861;48.808;9.006;2022-12-07T12:28:59;5.50;99.90
1728;DHT22;861;48.808;9.006;2022-12-07T12:31:40;5.50;99.90
1728;DHT22;861;48.808;9.006;2022-12-07T12:34:37;5.60;99.90
1728;DHT22;861;48.808;9.006;2022-12-07T12:42:54;5.40;99.90
1728;DHT22;861;48.808;9.006;2022-12-07T12:48:01;5.50;99.90
1728;DHT22;861;48.808;9.006;2022-12-07T12:51:39;5.60;99.90
1728;DHT22;861;48.808;9.006;2022-12-07T12:54:33;5.60;99.90
1728;DHT22;861;48.808;9.006;2022-12-07T12:57:26;5.50;99.90
1728;DHT22;861;48.808;9.006;2022-12-07T13:00:00;5.60;99.90
1728;DHT22;861;48.808;9.006;2022-12-07T13:02:55;5.50;99.90
1728;DHT22;861;48.808;9.006;2022-12-07T13:05:30;5.60;99.90
1728;DHT22;861;48.808;9.006;2022-12-07T13:08:23;5.60;99.90
1728;DHT22;861;48.808;9.006;2022-12-07T13:10:51;5.70;99.90
1728;DHT22;861;48.808;9.006;2022-12-07T13:15:50;5.80;99.90
1728;DHT22;861;48.808;9.006;2022-12-07T13:18:41;5.80;99.90
1728;DHT22;861;48.808;9.006;2022-12-07T13:31:55;5.70;99.90
1728;DHT22;861;48.808;9.006;2022-12-07T13:34:38;5.50;99.90
1728;DHT22;861;48.808;9.006;2022-12-07T13:37:29;5.60;99.90
1728;DHT22;861;48.808;9.006;2022-12-07T13:40:20;5.60;99.90
1728;DHT22;861;48.808;9.006;2022-12-07T13:43:02;5.70;99.90
1728;DHT22;861;48.808;9.006;2022-12-07T13:45:41;5.80;99.90
1728;DHT22;861;48.808;9.006;2022-12-07T13:48:32;5.90;99.90
1728;DHT22;861;48.808;9.006;2022-12-07T13:51:28;6.10;99.90
1728;DHT22;861;48.808;9.006;2022-12-07T13:54:12;6.10;99.90
1728;DHT22;861;48.808;9.006;2022-12-07T13:56:41;6.10;99.90
1728;DHT22;861;48.808;9.006;2022-12-07T13:59:24;5.70;99.90
1728;DHT22;861;48.808;9.006;2022-12-07T14:01:53;6.20;99.90
1728;DHT22;861;48.808;9.006;2022-12-07T14:04:36;6.20;99.90
1728;DHT22;861;48.808;9.006;2022-12-07T14:07:26;6.20;99.90
1728;DHT22;861;48.808;9.006;2022-12-07T14:10:03;6.30;99.90
1728;DHT22;861;48.808;9.006;2022-12-07T14:12:36;6.30;99.90
1728;DHT22;861;48.808;9.006;2022-12-07T14:15:03;6.40;99.90
1728;DHT22;861;48.808;9.006;2022-12-07T14:17:31;6.30;99.90
1728;DHT22;861;48.808;9.006;2022-12-07T14:20:00;6.30;99.90
1728;DHT22;861;48.808;9.006;2022-12-07T14:22:40;6.30;99.90
1728;DHT22;861;48.808;9.006;2022-12-07T14:25:27;6.30;99.90
1728;DHT22;861;48.808;9.006;2022-12-07T14:28:01;6.30;99.90
1728;DHT22;861;48.808;9.006;2022-12-07T14:30:32;6.20;99.90
1728;DHT22;861;48.808;9.006;2022-12-07T14:33:04;6.20;99.90
1728;DHT22;861;48.808;9.006;2022-12-07T14:35:32;6.20;99.90
1728;DHT22;861;48.808;9.006;2022-12-07T14:37:59;6.10;99.90
1728;DHT22;861;48.808;9.006;2022-12-07T14:40:29;6.00;99.90
1728;DHT22;861;48.808;9.006;2022-12-07T14:43:16;6.00;99.90
1728;DHT22;861;48.808;9.006;2022-12-07T14:45:44;6.00;99.90
1728;DHT22;861;48.808;9.006;2022-12-07T14:48:14;6.00;99.90
1728;DHT22;861;48.808;9.006;2022-12-07T14:50:49;5.90;99.90
1728;DHT22;861;48.808;9.006;2022-12-07T14:53:30;5.90;99.90
1728;DHT22;861;48.808;9.006;2022-12-07T14:56:05;5.80;99.90
1728;DHT22;861;48.808;9.006;2022-12-07T14:58:31;5.90;99.90
1728;DHT22;861;48.808;9.006;2022-12-07T15:00:58;5.90;99.90
1728;DHT22;861;48.808;9.006;2022-12-07T15:03:25;5.80;99.90
1728;DHT22;861;48.808;9.006;2022-12-07T15:05:52;5.80;99.90
1728;DHT22;861;48.808;9.006;2022-12-07T15:08:18;5.80;99.90
1728;DHT22;861;48.808;9.006;2022-12-07T15:10:44;5.70;99.90
1728;DHT22;861;48.808;9.006;2022-12-07T15:13:10;5.60;99.90
1728;DHT22;861;48.808;9.006;2022-12-07T15:15:56;5.60;99.90
1728;DHT22;861;48.808;9.006;2022-12-07T15:18:24;5.50;99.90
1728;DHT22;861;48.808;9.006;2022-12-07T15:20:50;5.40;99.90
1728;DHT22;861;48.808;9.006;2022-12-07T15:23:17;5.30;99.90
1728;DHT22;861;48.808;9.006;2022-12-07T15:25:47;5.30;99.90
1728;DHT22;861;48.808;9.006;2022-12-07T15:28:15;5.20;99.90
1728;DHT22;861;48.808;9.006;2022-12-07T15:30:44;5.20;99.90
1728;DHT22;861;48.808;9.006;2022-12-07T15:33:12;5.20;99.90
1728;DHT22;861;48.808;9.006;2022-12-07T15:35:41;5.20;99.90
1728;DHT22;861;48.808;9.006;2022-12-07T15:38:11;5.10;99.90
1728;DHT22;861;48.808;9.006;2022-12-07T15:40:37;5.10;99.90
1728;DHT22;861;48.808;9.006;2022-12-07T15:43:05;5.10;99.90
1728;DHT22;861;48.808;9.006;2022-12-07T15:45:51;5.10;99.90
1728;DHT22;861;48.808;9.006;2022-12-07T15:48:17;5.10;99.90
1728;DHT22;861;48.808;9.006;2022-12-07T15:50:43;5.10;99.90
1728;DHT22;861;48.808;9.006;2022-12-07T15:53:09;5.00;99.90
1728;DHT22;861;48.808;9.006;2022-12-07T15:55:38;5.00;99.90
1728;DHT22;861;48.808;9.006;2022-12-07T15:58:06;5.00;99.90
1728;DHT22;861;48.808;9.006;2022-12-07T16:00:33;5.00;99.90
1728;DHT22;861;48.808;9.006;2022-12-07T16:02:59;5.00;99.90
1728;DHT22;861;48.808;9.006;2022-12-07T16:05:25;5.00;99.90
1728;DHT22;861;48.808;9.006;2022-12-07T16:07:51;5.10;99.90
1728;DHT22;861;48.808;9.006;2022-12-07T16:10:17;5.10;99.90
1728;DHT22;861;48.808;9.006;2022-12-07T16:12:43;5.10;99.90
1728;DHT22;861;48.808;9.006;2022-12-07T16:15:10;5.00;99.90
1728;DHT22;861;48.808;9.006;2022-12-07T16:17:36;5.00;99.90
1728;DHT22;861;48.808;9.006;2022-12-07T16:20:04;4.90;99.90
1728;DHT22;861;48.808;9.006;2022-12-07T16:22:31;4.90;99.90
1728;DHT22;861;48.808;9.006;2022-12-07T16:24:57;5.00;99.90
1728;DHT22;861;48.808;9.006;2022-12-07T16:27:24;5.10;99.90
1728;DHT22;861;48.808;9.006;2022-12-07T16:29:50;5.10;99.90
1728;DHT22;861;48.808;9.006;2022-12-07T16:32:16;5.10;99.90
1728;DHT22;861;48.808;9.006;2022-12-07T16:34:42;5.10;99.90
1728;DHT22;861;48.808;9.006;2022-12-07T16:37:08;5.10;99.90
1728;DHT22;861;48.808;9.006;2022-12-07T16:39:34;5.20;99.90
1728;DHT22;861;48.808;9.006;2022-12-07T16:42:01;5.20;99.90
1728;DHT22;861;48.808;9.006;2022-12-07T16:44:28;5.30;99.90
1728;DHT22;861;48.808;9.006;2022-12-07T16:46:54;5.20;99.90
1728;DHT22;861;48.808;9.006;2022-12-07T16:49:20;5.20;99.90
1728;DHT22;861;48.808;9.006;2022-12-07T16:51:50;5.10;99.90
1728;DHT22;861;48.808;9.006;2022-12-07T16:54:16;5.00;99.90
1728;DHT22;861;48.808;9.006;2022-12-07T16:56:43;5.00;99.90
1728;DHT22;861;48.808;9.006;2022-12-07T16:59:10;5.00;99.90
1728;DHT22;861;48.808;9.006;2022-12-07T17:01:36;5.00;99.90
1728;DHT22;861;48.808;9.006;2022-12-07T17:04:04;4.90;99.90
1728;DHT22;861;48.808;9.006;2022-12-07T17:06:30;4.90;99.90
1728;DHT22;861;48.808;9.006;2022-12-07T17:08:59;4.90;99.90
1728;DHT22;861;48.808;9.006;2022-12-07T17:11:30;4.80;99.90
1728;DHT22;861;48.808;9.006;2022-12-07T17:13:57;4.70;99.90
1728;DHT22;861;48.808;9.006;2022-12-07T17:16:42;4.70;99.90
1728;DHT22;861;48.808;9.006;2022-12-07T17:19:14;4.70;99.90
1728;DHT22;861;48.808;9.006;2022-12-07T17:21:43;4.60;99.90
1728;DHT22;861;48.808;9.006;2022-12-07T17:24:13;4.60;99.90
1728;DHT22;861;48.808;9.006;2022-12-07T17:26:44;4.50;99.90
1728;DHT22;861;48.808;9.006;2022-12-07T17:29:14;4.50;99.90
1728;DHT22;861;48.808;9.006;2022-12-07T17:31:45;4.40;99.90
1728;DHT22;861;48.808;9.006;2022-12-07T17:34:15;4.50;99.90
1728;DHT22;861;48.808;9.006;2022-12-07T17:36:42;4.50;99.90
1728;DHT22;861;48.808;9.006;2022-12-07T17:39:15;4.50;99.90
1728;DHT22;861;48.808;9.006;2022-12-07T17:41:45;4.50;99.90
1728;DHT22;861;48.808;9.006;2022-12-07T17:44:30;4.50;99.90
1728;DHT22;861;48.808;9.006;2022-12-07T17:46:58;4.20;99.90
1728;DHT22;861;48.808;9.006;2022-12-07T17:49:27;4.60;99.90
1728;DHT22;861;48.808;9.006;2022-12-07T17:51:54;4.40;99.90
1728;DHT22;861;48.808;9.006;2022-12-07T17:54:39;4.40;99.90
1728;DHT22;861;48.808;9.006;2022-12-07T17:57:06;4.30;99.90
1728;DHT22;861;48.808;9.006;2022-12-07T17:59:33;4.20;99.90
1728;DHT22;861;48.808;9.006;2022-12-07T18:01:59;4.20;99.90
1728;DHT22;861;48.808;9.006;2022-12-07T18:04:25;4.10;99.90
1728;DHT22;861;48.808;9.006;2022-12-07T18:06:51;4.00;99.90
1728;DHT22;861;48.808;9.006;2022-12-07T18:09:18;4.00;99.90
1728;DHT22;861;48.808;9.006;2022-12-07T18:11:46;4.10;99.90
1728;DHT22;861;48.808;9.006;2022-12-07T18:14:13;4.00;99.90
1728;DHT22;861;48.808;9.006;2022-12-07T18:16:39;4.10;99.90
1728;DHT22;861;48.808;9.006;2022-12-07T18:19:07;4.10;99.90
1728;DHT22;861;48.808;9.006;2022-12-07T18:21:34;4.10;99.90
1728;DHT22;861;48.808;9.006;2022-12-07T18:24:03;4.10;99.90
1728;DHT22;861;48.808;9.006;2022-12-07T18:26:32;4.00;99.90
1728;DHT22;861;48.808;9.006;2022-12-07T18:29:03;3.90;99.90
1728;DHT22;861;48.808;9.006;2022-12-07T18:31:33;3.90;99.90
1728;DHT22;861;48.808;9.006;2022-12-07T18:34:07;4.00;99.90
1728;DHT22;861;48.808;9.006;2022-12-07T18:36:40;4.00;99.90
1728;DHT22;861;48.808;9.006;2022-12-07T18:39:12;4.00;99.90